Time;durP1;ratioP1;P1;durP2;ratioP2;P2;SDS_P1;SDS_P2;PMS_P1;PMS_P2;Temp;Humidity;BMP_temperature;BMP_pressure;BME280_temperature;BME280_humidity;BME280_pressure;Samples;Min_cycle;Max_cycle;Signal;HPM_P1;HPM_P2
2022/03/30 00:00:44;;;;;;;37.40;21.00;;;;;;;10.82;52.38;100697.69;5040264;28;20025;-61
2022/03/30 00:03:10;;;;;;;34.50;20.38;;;;;;;10.86;52.34;100695.25;5013159;28;1012961;-61
2022/03/30 00:05:35;;;;;;;36.72;20.58;;;;;;;10.78;52.85;100691.81;5054626;28;20130;-61
2022/03/30 00:08:00;;;;;;;34.30;20.55;;;;;;;10.84;52.57;100695.50;5050526;28;20039;-61
2022/03/30 00:10:26;;;;;;;39.20;21.00;;;;;;;10.82;52.45;100694.94;5048532;28;20484;-61
2022/03/30 00:12:51;;;;;;;34.83;20.05;;;;;;;10.85;52.43;100693.56;5039593;28;20029;-62
2022/03/30 00:15:17;;;;;;;34.55;21.25;;;;;;;10.83;52.60;100696.59;5045315;28;20502;-61
2022/03/30 00:17:43;;;;;;;40.33;20.35;;;;;;;10.85;52.43;100699.13;5037919;28;20033;-61
2022/03/30 00:20:10;;;;;;;39.45;22.05;;;;;;;10.80;52.34;100703.50;5032361;28;20025;-60
2022/03/30 00:22:35;;;;;;;37.25;21.15;;;;;;;10.80;52.87;100697.09;5040071;28;20028;-61
2022/03/30 00:25:01;;;;;;;45.00;22.83;;;;;;;10.75;52.76;100702.59;5032592;28;20052;-61
2022/03/30 00:27:26;;;;;;;32.42;20.98;;;;;;;10.75;52.80;100694.28;5043156;28;20069;-61
2022/03/30 00:29:52;;;;;;;35.20;20.77;;;;;;;10.76;52.94;100690.38;5049538;28;20043;-61
2022/03/30 00:32:17;;;;;;;41.83;21.27;;;;;;;10.74;52.93;100687.06;5037016;28;20163;-61
2022/03/30 00:34:43;;;;;;;37.00;21.50;;;;;;;10.67;53.08;100686.41;5047740;28;20485;-61
2022/03/30 00:37:08;;;;;;;39.95;21.77;;;;;;;10.62;53.18;100678.00;5047395;28;20143;-61
2022/03/30 00:39:34;;;;;;;37.03;21.42;;;;;;;10.60;53.30;100678.25;5047401;28;20025;-61
2022/03/30 00:42:00;;;;;;;37.40;20.80;;;;;;;10.59;53.35;100675.75;5043677;28;20029;-60
2022/03/30 00:44:25;;;;;;;39.63;21.67;;;;;;;10.57;53.28;100671.31;5046758;28;20511;-61
2022/03/30 00:46:51;;;;;;;36.42;21.05;;;;;;;10.62;53.03;100670.53;5046007;28;20035;-60
2022/03/30 00:49:16;;;;;;;39.92;22.17;;;;;;;10.65;53.22;100677.47;5039167;28;20455;-60
2022/03/30 00:51:42;;;;;;;37.30;21.73;;;;;;;10.63;53.16;100674.13;5045388;28;20071;-61
2022/03/30 00:54:07;;;;;;;38.47;21.60;;;;;;;10.66;53.19;100682.78;5057526;28;20524;-60
2022/03/30 00:56:35;;;;;;;34.10;21.15;;;;;;;10.65;53.14;100683.03;5041015;28;20477;-60
2022/03/30 00:59:02;;;;;;;41.85;21.92;;;;;;;10.63;52.82;100690.78;5043379;28;20095;-60
2022/03/30 01:01:28;;;;;;;36.03;20.42;;;;;;;10.60;53.02;100674.63;5050218;28;20048;-61
2022/03/30 01:03:53;;;;;;;39.72;21.58;;;;;;;10.59;53.12;100678.53;5044509;28;20045;-61
2022/03/30 01:06:18;;;;;;;38.53;21.38;;;;;;;10.56;52.72;100671.53;5052523;28;20029;-61
2022/03/30 01:08:45;;;;;;;38.92;21.10;;;;;;;10.51;53.24;100666.78;5036147;28;20036;-61
2022/03/30 01:11:12;;;;;;;35.10;21.02;;;;;;;10.51;52.87;100671.47;5042341;28;20032;-60
2022/03/30 01:13:38;;;;;;;36.78;20.67;;;;;;;10.48;52.92;100658.13;5042061;28;20060;-60
2022/03/30 01:16:04;;;;;;;33.58;20.65;;;;;;;10.43;53.16;100667.22;5046752;28;20033;-60
2022/03/30 01:18:29;;;;;;;36.60;20.23;;;;;;;10.43;52.71;100658.88;5033804;28;20025;-61
2022/03/30 01:20:54;;;;;;;38.53;20.30;;;;;;;10.37;53.08;100656.28;5048439;28;20056;-60
2022/03/30 01:23:19;;;;;;;41.00;22.88;;;;;;;10.37;52.74;100651.59;5050373;28;20037;-59
2022/03/30 01:25:45;;;;;;;34.38;20.20;;;;;;;10.40;53.07;100653.84;5051450;28;20082;-60
2022/03/30 01:28:14;;;;;;;36.35;21.85;;;;;;;10.34;52.81;100649.34;5040572;28;20036;-60
2022/03/30 01:33:23;;;;;;;32.85;20.38;;;;;;;10.21;53.01;100649.66;5036375;28;20047;-60
2022/03/30 01:35:48;;;;;;;40.03;20.63;;;;;;;10.22;53.09;100649.44;5038332;28;20017;-60
2022/03/30 01:38:14;;;;;;;34.42;20.17;;;;;;;10.19;53.15;100649.09;5040226;28;20055;-60
2022/03/30 01:40:39;;;;;;;36.60;21.15;;;;;;;10.22;53.27;100645.81;5050586;28;20040;-60
2022/03/30 01:43:04;;;;;;;37.67;21.73;;;;;;;10.15;52.99;100643.22;5039786;28;20009;-60
2022/03/30 01:45:30;;;;;;;31.83;20.00;;;;;;;10.18;53.15;100644.63;5048580;28;20021;-60
2022/03/30 01:47:59;;;;;;;38.53;21.80;;;;;;;10.20;52.87;100642.44;5044332;28;20041;-60
2022/03/30 01:50:26;;;;;;;37.85;20.60;;;;;;;10.19;52.96;100640.78;5046793;28;20099;-60
2022/03/30 01:52:51;;;;;;;39.90;21.23;;;;;;;10.13;53.18;100639.00;5048000;28;20057;-60
2022/03/30 01:55:17;;;;;;;37.70;21.02;;;;;;;10.02;53.18;100641.66;5040175;28;20064;-60
2022/03/30 01:57:43;;;;;;;37.42;20.58;;;;;;;10.03;53.34;100634.16;5050041;28;20393;-60
2022/03/30 02:00:10;;;;;;;36.03;21.05;;;;;;;10.02;53.38;100629.69;5049727;28;20028;-60
2022/03/30 02:02:36;;;;;;;34.13;20.73;;;;;;;9.96;53.53;100628.78;5051351;28;20060;-60
2022/03/30 02:05:01;;;;;;;38.25;20.88;;;;;;;10.02;53.66;100629.69;5051236;28;20427;-60
2022/03/30 02:07:27;;;;;;;35.92;20.77;;;;;;;10.04;53.30;100624.75;5047059;28;20021;-60
2022/03/30 02:09:55;;;;;;;38.65;21.27;;;;;;;10.00;53.74;100626.34;5038270;28;20047;-60
2022/03/30 02:12:20;;;;;;;36.58;20.75;;;;;;;9.89;53.63;100622.59;5039131;28;20025;-60
2022/03/30 02:14:47;;;;;;;34.63;21.27;;;;;;;9.95;54.10;100618.81;5045001;28;20033;-60
2022/03/30 02:17:12;;;;;;;40.90;21.67;;;;;;;9.87;53.83;100621.19;5050316;28;20033;-61
2022/03/30 02:19:38;;;;;;;40.10;21.45;;;;;;;9.84;53.92;100620.56;5049909;28;20037;-60
2022/03/30 02:22:03;;;;;;;37.97;22.83;;;;;;;9.82;53.79;100616.38;5051732;28;20376;-60
2022/03/30 02:24:28;;;;;;;42.78;22.60;;;;;;;9.76;53.90;100615.47;5051866;28;20461;-60
2022/03/30 02:26:54;;;;;;;39.05;20.65;;;;;;;9.83;53.89;100615.31;5051572;28;20023;-60
2022/03/30 02:29:19;;;;;;;39.95;21.67;;;;;;;9.78;54.03;100606.88;5052045;28;20032;-60
2022/03/30 02:31:47;;;;;;;35.15;20.33;;;;;;;9.79;53.60;100603.03;5051410;28;20017;-60
2022/03/30 02:34:13;;;;;;;36.80;20.90;;;;;;;9.77;54.05;100602.44;5051504;28;20032;-60
2022/03/30 02:36:39;;;;;;;39.55;21.17;;;;;;;9.80;53.67;100594.47;5051402;28;20434;-60
2022/03/30 02:39:04;;;;;;;42.40;21.88;;;;;;;9.68;53.71;100587.34;5051285;28;20149;-60
2022/03/30 02:41:30;;;;;;;39.75;21.35;;;;;;;9.69;53.63;100583.47;5051443;28;20425;-60
2022/03/30 02:43:55;;;;;;;35.15;21.25;;;;;;;9.65;53.74;100576.75;5051625;28;20025;-60
2022/03/30 02:46:20;;;;;;;36.28;21.92;;;;;;;9.59;54.10;100581.41;5050725;28;20044;-60
2022/03/30 02:48:46;;;;;;;39.55;21.92;;;;;;;9.63;53.97;100570.63;5046486;28;20499;-60
2022/03/30 02:51:11;;;;;;;39.90;22.08;;;;;;;9.55;54.24;100574.69;5051171;28;20361;-60
2022/03/30 02:53:36;;;;;;;39.15;21.67;;;;;;;9.61;54.17;100567.28;5050795;28;20060;-60
2022/03/30 02:56:03;;;;;;;35.88;21.15;;;;;;;9.58;54.08;100563.91;5051690;28;20119;-60
2022/03/30 02:58:29;;;;;;;38.65;22.48;;;;;;;9.58;54.42;100566.69;5034502;28;20047;-61
2022/03/30 03:00:54;;;;;;;39.58;21.40;;;;;;;9.50;54.22;100564.34;5046509;28;20029;-60
2022/03/30 03:03:20;;;;;;;39.83;22.30;;;;;;;9.51;54.41;100567.94;5044329;28;20365;-60
2022/03/30 03:05:49;;;;;;;42.08;22.55;;;;;;;9.52;54.21;100576.03;5040994;28;20075;-61
2022/03/30 03:08:16;;;;;;;40.00;21.52;;;;;;;9.53;54.39;100572.16;5038347;28;20134;-60
2022/03/30 03:10:44;;;;;;;34.08;20.73;;;;;;;9.48;54.02;100568.47;5042359;28;20017;-60
2022/03/30 03:13:16;;;;;;;34.47;20.75;;;;;;;9.42;54.98;100569.47;5042346;28;20063;-60
2022/03/30 03:15:41;;;;;;;39.75;21.35;;;;;;;9.42;54.44;100569.47;5034138;28;20021;-60
2022/03/30 03:18:07;;;;;;;39.08;21.17;;;;;;;9.40;54.46;100569.75;5041653;28;20032;-60
2022/03/30 03:20:36;;;;;;;40.45;21.42;;;;;;;9.42;54.51;100561.16;5049602;28;20064;-60
2022/03/30 03:23:02;;;;;;;41.80;21.27;;;;;;;9.33;54.84;100566.28;5045752;28;20066;-60
2022/03/30 03:25:34;;;;;;;42.95;21.55;;;;;;;9.34;54.63;100557.72;5050925;28;20036;-60
2022/03/30 03:28:01;;;;;;;34.90;20.50;;;;;;;9.34;54.44;100559.66;5046590;28;20029;-60
2022/03/30 03:30:27;;;;;;;42.33;21.30;;;;;;;9.35;54.83;100558.56;5040860;28;20059;-61
2022/03/30 03:32:56;;;;;;;38.95;21.80;;;;;;;9.37;54.52;100555.56;5032931;28;20490;-60
2022/03/30 03:35:22;;;;;;;38.05;20.45;;;;;;;9.29;54.58;100556.81;5031068;28;20026;-60
2022/03/30 03:37:47;;;;;;;37.13;20.80;;;;;;;9.29;54.79;100549.34;5033437;28;20029;-60
2022/03/30 03:40:19;;;;;;;38.42;22.17;;;;;;;9.28;54.91;100546.84;5046426;28;20025;-60
2022/03/30 03:42:44;;;;;;;36.67;21.95;;;;;;;9.22;54.83;100548.66;5048851;28;20112;-60
2022/03/30 03:45:10;;;;;;;38.30;21.08;;;;;;;9.23;55.15;100552.25;5035339;28;20104;-60
2022/03/30 03:47:36;;;;;;;42.53;21.73;;;;;;;9.21;55.13;100547.00;5044775;28;20465;-60
2022/03/30 03:50:02;;;;;;;38.28;20.67;;;;;;;9.13;55.07;100543.81;5034781;28;20036;-60
2022/03/30 03:52:28;;;;;;;42.60;21.95;;;;;;;9.13;54.76;100543.81;5039627;28;20100;-61
2022/03/30 03:54:54;;;;;;;38.28;20.92;;;;;;;9.18;55.26;100541.13;5034975;28;20047;-60
2022/03/30 03:57:19;;;;;;;37.15;21.27;;;;;;;9.16;55.14;100543.31;5043214;28;20528;-60
2022/03/30 03:59:44;;;;;;;37.63;21.67;;;;;;;9.09;55.33;100540.69;5044888;28;20055;-60
2022/03/30 04:02:10;;;;;;;36.90;21.80;;;;;;;9.12;55.28;100539.34;5043876;28;20773;-61
2022/03/30 04:04:37;;;;;;;38.65;21.30;;;;;;;9.10;54.71;100543.19;5033232;28;20026;-60
2022/03/30 04:07:03;;;;;;;39.65;20.83;;;;;;;9.00;55.12;100539.41;5051070;28;20108;-60
2022/03/30 04:09:32;;;;;;;35.70;21.98;;;;;;;8.98;55.33;100536.91;5042666;28;20059;-60
2022/03/30 04:11:58;;;;;;;37.40;21.15;;;;;;;8.99;54.88;100533.03;5044534;28;20445;-60
2022/03/30 04:14:26;;;;;;;41.92;22.35;;;;;;;8.93;54.77;100533.22;5037641;28;20057;-60
2022/03/30 04:16:51;;;;;;;39.17;22.02;;;;;;;8.89;55.48;100530.13;5041531;28;20037;-61
2022/03/30 04:19:16;;;;;;;38.78;21.88;;;;;;;8.85;55.11;100528.94;5048090;28;20166;-60
2022/03/30 04:21:42;;;;;;;39.75;22.63;;;;;;;8.84;55.43;100535.53;5049363;28;20023;-60
2022/03/30 04:24:09;;;;;;;37.80;21.23;;;;;;;8.81;54.92;100522.22;5050153;28;20028;-60
2022/03/30 04:26:38;;;;;;;38.53;21.17;;;;;;;8.83;55.24;100517.25;5043743;28;20026;-60
2022/03/30 04:29:04;;;;;;;43.08;22.42;;;;;;;8.76;54.85;100528.50;5032520;28;20036;-60
2022/03/30 04:31:30;;;;;;;36.30;21.33;;;;;;;8.77;54.94;100524.66;5038032;28;20488;-60
2022/03/30 04:33:58;;;;;;;40.92;21.38;;;;;;;8.73;55.53;100523.47;5046163;28;20044;-60
2022/03/30 04:36:26;;;;;;;35.97;20.75;;;;;;;8.68;55.43;100519.75;5035875;28;20061;-60
2022/03/30 04:38:52;;;;;;;38.60;21.98;;;;;;;8.65;55.54;100520.28;5044605;28;20041;-60
2022/03/30 04:41:17;;;;;;;39.95;21.83;;;;;;;8.62;55.57;100526.28;5042601;28;20484;-60
2022/03/30 04:43:42;;;;;;;43.38;21.38;;;;;;;8.67;55.41;100520.84;5045041;28;20124;-60
2022/03/30 04:46:12;;;;;;;42.00;21.85;;;;;;;8.58;55.76;100529.56;5037935;28;20040;-60
2022/03/30 04:48:40;;;;;;;38.60;21.48;;;;;;;8.52;55.75;100533.28;5044631;28;20041;-60
2022/03/30 04:51:06;;;;;;;44.13;22.33;;;;;;;8.56;55.67;100533.63;5044665;28;20116;-61
2022/03/30 04:53:34;;;;;;;42.30;22.20;;;;;;;8.57;56.07;100525.13;5043705;28;20109;-60
2022/03/30 04:55:59;;;;;;;46.63;23.17;;;;;;;8.53;55.75;100528.63;5042029;28;20140;-60
2022/03/30 04:58:24;;;;;;;37.45;21.88;;;;;;;8.59;55.79;100528.44;5042829;28;20056;-60
2022/03/30 05:00:50;;;;;;;37.33;21.55;;;;;;;8.58;55.20;100531.47;5038490;28;20039;-60
2022/03/30 05:03:16;;;;;;;39.50;23.05;;;;;;;8.59;55.43;100534.00;5051169;28;20052;-60
2022/03/30 05:05:41;;;;;;;46.70;23.00;;;;;;;8.55;55.84;100531.97;5059131;28;20055;-60
2022/03/30 05:08:07;;;;;;;43.08;23.35;;;;;;;8.47;55.82;100535.97;5048398;28;20033;-60
2022/03/30 05:10:32;;;;;;;41.63;22.60;;;;;;;8.41;55.92;100536.09;5042796;28;20044;-60
2022/03/30 05:12:59;;;;;;;42.47;21.77;;;;;;;8.37;56.16;100530.25;5037650;28;20029;-60
2022/03/30 05:15:28;;;;;;;42.50;23.35;;;;;;;8.34;56.28;100530.72;5038938;28;20124;-60
2022/03/30 05:17:54;;;;;;;42.40;22.98;;;;;;;8.31;56.10;100531.19;5046713;28;20036;-59
2022/03/30 05:20:19;;;;;;;42.67;23.45;;;;;;;8.21;56.14;100529.06;5049031;28;20051;-59
2022/03/30 05:22:47;;;;;;;41.05;23.05;;;;;;;8.28;56.49;100520.63;5040414;28;20029;-59
2022/03/30 05:25:15;;;;;;;41.33;23.10;;;;;;;8.28;56.23;100517.84;5051992;28;20056;-59
2022/03/30 05:27:41;;;;;;;45.38;23.25;;;;;;;8.28;56.02;100520.63;5042240;28;20498;-59
2022/03/30 05:30:08;;;;;;;42.78;23.55;;;;;;;8.29;56.37;100520.41;5039930;28;20377;-59
2022/03/30 05:32:35;;;;;;;44.17;23.00;;;;;;;8.22;56.36;100518.84;5049568;28;20041;-59
2022/03/30 05:35:04;;;;;;;41.22;22.42;;;;;;;8.19;55.94;100516.56;5052650;28;20029;-59
2022/03/30 05:37:32;;;;;;;41.38;22.23;;;;;;;8.10;56.80;100522.50;5045118;28;20033;-59
2022/03/30 05:39:58;;;;;;;43.63;22.90;;;;;;;8.04;56.54;100517.94;5039520;28;20384;-60
2022/03/30 05:42:23;;;;;;;41.38;22.92;;;;;;;8.09;56.48;100517.19;5037471;28;20120;-60
2022/03/30 05:44:50;;;;;;;37.47;22.88;;;;;;;8.05;56.83;100519.59;5044942;28;20105;-59
2022/03/30 05:47:16;;;;;;;45.42;22.98;;;;;;;8.00;56.91;100515.91;5044234;28;20049;-60
2022/03/30 05:49:41;;;;;;;37.50;22.00;;;;;;;7.95;57.42;100516.66;5034741;28;20029;-59
2022/03/30 05:52:10;;;;;;;43.03;23.38;;;;;;;7.95;57.15;100516.66;5038729;28;20548;-59
2022/03/30 05:54:36;;;;;;;44.17;22.48;;;;;;;8.04;57.47;100515.16;5038501;28;20034;-59
2022/03/30 05:57:02;;;;;;;41.28;22.17;;;;;;;8.04;56.81;100511.56;5043807;28;20029;-59
2022/03/30 05:59:29;;;;;;;43.28;22.38;;;;;;;8.06;56.38;100518.53;5037783;28;20391;-60
2022/03/30 06:01:55;;;;;;;39.65;22.00;;;;;;;8.12;56.67;100517.53;5041688;28;20030;-59
2022/03/30 06:04:21;;;;;;;45.55;23.55;;;;;;;8.15;56.67;100520.91;5041382;28;20508;-59
2022/03/30 06:06:46;;;;;;;45.50;23.67;;;;;;;8.15;57.14;100526.44;5037813;28;20036;-59
2022/03/30 06:09:12;;;;;;;45.92;23.95;;;;;;;8.08;57.15;100527.41;5039784;28;20025;-59
2022/03/30 06:11:39;;;;;;;38.92;22.42;;;;;;;8.06;57.22;100523.25;5040993;28;20499;-59
2022/03/30 06:14:05;;;;;;;41.65;23.73;;;;;;;8.03;57.34;100527.31;5036704;28;20111;-58
2022/03/30 06:16:30;;;;;;;40.15;23.30;;;;;;;8.08;56.76;100538.47;5038531;28;20863;-58
2022/03/30 06:18:56;;;;;;;45.72;24.13;;;;;;;8.16;56.85;100539.19;5042762;28;20037;-60
2022/03/30 06:21:22;;;;;;;45.15;23.65;;;;;;;8.12;56.55;100534.13;5046245;28;20021;-60
2022/03/30 06:23:48;;;;;;;42.95;24.65;;;;;;;8.09;57.12;100531.84;5046036;28;20557;-59
2022/03/30 06:26:13;;;;;;;42.85;22.70;;;;;;;8.08;57.00;100532.09;5042301;28;20472;-59
2022/03/30 06:28:38;;;;;;;42.35;23.42;;;;;;;8.15;57.09;100534.75;5039392;28;20025;-60
2022/03/30 06:31:04;;;;;;;46.25;23.00;;;;;;;8.16;57.28;100539.19;5042332;28;20116;-59
2022/03/30 06:33:29;;;;;;;42.72;23.30;;;;;;;8.25;57.39;100530.28;5033041;28;20052;-59
2022/03/30 06:35:55;;;;;;;42.67;24.80;;;;;;;8.23;56.73;100537.13;5031781;28;20053;-59
2022/03/30 06:38:27;;;;;;;44.90;25.02;;;;;;;8.29;56.60;100533.34;5046234;28;20036;-59
2022/03/30 06:40:53;;;;;;;41.20;23.98;;;;;;;8.28;57.33;100531.69;5047491;28;20095;-60
2022/03/30 06:43:18;;;;;;;43.22;22.83;;;;;;;8.38;56.76;100526.41;5051458;28;20423;-60
2022/03/30 06:45:46;;;;;;;41.70;22.90;;;;;;;8.41;57.29;100520.38;5050699;28;20033;-59
2022/03/30 06:48:11;;;;;;;45.88;24.20;;;;;;;8.39;56.37;100519.78;5048079;28;20450;-60
2022/03/30 06:50:37;;;;;;;40.65;22.75;;;;;;;8.49;56.00;100531.03;5040990;28;20033;-60
2022/03/30 06:53:05;;;;;;;35.78;21.88;;;;;;;8.55;56.54;100527.28;5046096;28;20037;-60
2022/03/30 06:55:30;;;;;;;40.80;22.30;;;;;;;8.60;56.35;100521.00;5032326;28;20033;-60
2022/03/30 06:57:55;;;;;;;41.97;22.35;;;;;;;8.62;56.07;100529.91;5035117;28;20706;-60
2022/03/30 07:00:47;;;;;;;37.05;22.15;;;;;;;8.64;55.89;100522.16;5037613;28;20083;-61
2022/03/30 07:03:12;;;;;;;38.97;21.48;;;;;;;8.67;55.40;100513.38;5036380;28;20036;-62
2022/03/30 07:05:38;;;;;;;37.70;22.38;;;;;;;8.66;55.76;100502.56;5044718;28;20060;-60
2022/03/30 07:10:48;;;;;;;38.65;21.70;;;;;;;8.78;55.31;100515.25;5041192;28;20514;-60
2022/03/30 07:13:13;;;;;;;39.85;21.00;;;;;;;8.76;56.26;100517.44;5059689;28;20036;-60
2022/03/30 07:15:41;;;;;;;41.47;21.42;;;;;;;8.82;56.24;100521.97;5033293;28;20029;-60
2022/03/30 07:18:08;;;;;;;40.92;20.63;;;;;;;8.86;55.39;100527.84;5046838;28;20037;-60
2022/03/30 07:20:35;;;;;;;37.58;21.30;;;;;;;8.89;55.52;100520.97;5046491;28;20082;-59
2022/03/30 07:23:01;;;;;;;37.42;20.88;;;;;;;8.95;56.13;100517.19;5053687;28;20044;-60
2022/03/30 07:25:28;;;;;;;37.88;21.40;;;;;;;9.00;55.53;100523.66;5042990;28;20036;-60
2022/03/30 07:27:55;;;;;;;37.58;21.25;;;;;;;9.06;55.71;100513.50;5043178;28;20125;-60
2022/03/30 07:30:22;;;;;;;38.17;21.48;;;;;;;9.10;54.78;100518.28;5053284;28;20430;-60
2022/03/30 07:32:49;;;;;;;37.08;21.60;;;;;;;9.13;55.09;100530.78;5051175;28;20029;-61
2022/03/30 07:35:17;;;;;;;39.42;20.92;;;;;;;9.14;55.34;100526.94;5043608;28;20569;-60
2022/03/30 07:37:45;;;;;;;36.75;21.70;;;;;;;9.19;54.99;100526.16;5047554;28;20029;-60
2022/03/30 07:40:12;;;;;;;37.53;20.50;;;;;;;9.22;54.64;100526.50;5042435;28;20047;-60
2022/03/30 07:42:38;;;;;;;37.90;21.52;;;;;;;9.34;55.44;100520.88;5038665;28;20034;-62
2022/03/30 07:45:04;;;;;;;40.58;22.38;;;;;;;9.37;54.64;100517.59;5040055;28;20017;-62
2022/03/30 07:47:31;;;;;;;41.28;21.73;;;;;;;9.42;54.84;100526.00;5029671;28;20029;-61
2022/03/30 07:49:57;;;;;;;38.28;21.65;;;;;;;9.43;54.06;100524.06;5043619;28;20036;-62
2022/03/30 07:52:23;;;;;;;38.55;20.42;;;;;;;9.48;54.58;100511.13;5039168;28;20532;-61
2022/03/30 07:54:48;;;;;;;36.30;20.23;;;;;;;9.51;54.43;100516.16;5049143;28;20021;-61
2022/03/30 07:57:15;;;;;;;34.70;20.35;;;;;;;9.52;53.91;100512.31;5045198;28;20032;-62
2022/03/30 07:59:40;;;;;;;38.05;19.48;;;;;;;9.55;54.36;100513.72;5036198;28;20029;-61
2022/03/30 08:02:07;;;;;;;37.47;19.98;;;;;;;9.60;53.96;100513.81;5048681;28;20024;-60
2022/03/30 08:04:32;;;;;;;34.83;19.05;;;;;;;9.55;53.88;100514.56;5043086;28;20052;-59
2022/03/30 08:06:57;;;;;;;30.83;19.10;;;;;;;9.57;53.92;100517.06;5043577;28;20116;-63
2022/03/30 08:09:23;;;;;;;39.78;20.13;;;;;;;9.54;53.72;100512.88;5039879;28;20120;-60
2022/03/30 08:11:48;;;;;;;31.85;19.95;;;;;;;9.47;53.96;100508.59;5050425;28;20442;-61
2022/03/30 08:14:13;;;;;;;34.90;20.17;;;;;;;9.59;53.83;100514.91;5048513;28;20461;-61
2022/03/30 08:16:39;;;;;;;34.08;19.88;;;;;;;9.70;53.75;100530.56;5049399;28;20025;-63
2022/03/30 08:19:06;;;;;;;35.05;19.25;;;;;;;9.85;53.52;100529.94;5050091;28;20091;-61
2022/03/30 08:24:16;;;;;;;34.83;19.52;;;;;;;10.05;53.33;100521.88;5044610;28;20134;-62
2022/03/30 08:26:41;;;;;;;36.38;20.45;;;;;;;10.19;53.38;100527.06;5052677;28;20041;-61
2022/03/30 08:29:08;;;;;;;37.25;21.17;;;;;;;10.27;53.41;100524.69;5045245;28;20044;-61
2022/03/30 08:31:34;;;;;;;34.40;20.63;;;;;;;10.42;53.02;100523.22;5045334;28;20044;-62
2022/03/30 08:33:59;;;;;;;36.33;20.92;;;;;;;10.52;52.44;100524.13;5038812;28;20100;-61
2022/03/30 08:36:29;;;;;;;37.45;20.52;;;;;;;10.61;52.26;100510.66;5046957;28;20100;-61
2022/03/30 08:38:56;;;;;;;38.25;20.40;;;;;;;10.68;51.82;100515.97;5045807;28;20083;-61
2022/03/30 08:41:21;;;;;;;35.25;18.98;;;;;;;10.73;51.87;100513.28;5048303;28;20033;-61
2022/03/30 08:43:50;;;;;;;34.85;19.98;;;;;;;10.76;51.27;100515.50;5044185;28;20035;-62
2022/03/30 08:46:15;;;;;;;34.80;19.65;;;;;;;10.82;51.20;100501.41;5055087;28;20468;-61
2022/03/30 08:48:41;;;;;;;34.33;18.35;;;;;;;10.91;50.98;100504.53;5049438;28;20031;-60
2022/03/30 08:51:07;;;;;;;29.70;18.92;;;;;;;11.00;50.89;100504.88;5047794;28;20037;-61
2022/03/30 08:53:33;;;;;;;31.65;17.75;;;;;;;11.04;50.42;100497.69;5037169;28;20461;-61
2022/03/30 08:55:59;;;;;;;28.45;17.75;;;;;;;11.09;50.45;100494.16;5051806;28;20036;-60
2022/03/30 08:58:24;;;;;;;31.33;16.73;;;;;;;11.18;50.39;100489.78;5057007;28;20033;-61
2022/03/30 09:00:53;;;;;;;29.52;17.60;;;;;;;11.28;50.62;100493.47;5050795;28;20037;-60
2022/03/30 09:03:19;;;;;;;28.83;16.85;;;;;;;11.38;50.36;100495.47;5035110;28;20049;-61
2022/03/30 09:05:45;;;;;;;28.63;17.02;;;;;;;11.48;50.02;100500.28;5047264;28;20040;-61
2022/03/30 09:08:17;;;;;;;30.23;16.70;;;;;;;11.54;50.32;100501.97;5044178;28;20112;-61
2022/03/30 09:10:46;;;;;;;25.27;16.27;;;;;;;11.58;49.99;100496.72;5046992;28;20033;-62
2022/03/30 09:13:14;;;;;;;29.60;15.90;;;;;;;11.67;49.66;100503.44;5043748;28;20033;-62
2022/03/30 09:15:40;;;;;;;29.77;16.85;;;;;;;11.69;49.62;100492.88;5051089;28;20431;-63
2022/03/30 09:18:09;;;;;;;31.75;17.33;;;;;;;11.75;49.33;100489.00;5065275;28;20068;-63
2022/03/30 09:20:36;;;;;;;28.40;16.85;;;;;;;11.73;49.19;100497.63;5054721;28;20104;-64
2022/03/30 09:23:01;;;;;;;30.25;16.27;;;;;;;11.74;48.98;100490.13;5045152;28;20028;-62
2022/03/30 09:25:30;;;;;;;30.83;17.10;;;;;;;11.78;49.40;100494.88;5049788;28;20035;-63
2022/03/30 09:27:57;;;;;;;29.00;16.80;;;;;;;11.82;49.36;100492.38;5050293;28;20507;-62
2022/03/30 09:30:25;;;;;;;31.45;17.10;;;;;;;11.87;48.95;100483.25;5045241;28;20047;-62
2022/03/30 09:32:52;;;;;;;30.10;17.23;;;;;;;11.96;49.01;100479.72;5060788;28;20497;-61
2022/03/30 09:35:30;;;;;;;33.30;17.40;;;;;;;12.06;49.07;100481.69;5069285;28;20060;-61
2022/03/30 09:38:22;;;;;;;38.40;17.35;;;;;;;12.13;48.89;100471.16;5042710;28;20091;-61
2022/03/30 09:40:54;;;;;;;34.20;17.98;;;;;;;12.03;48.16;100465.56;5049423;28;20511;-62
2022/03/30 09:43:25;;;;;;;29.10;17.02;;;;;;;11.98;48.60;100471.91;5046417;28;20029;-62
2022/03/30 09:46:05;;;;;;;34.13;17.30;;;;;;;11.99;48.53;100473.63;5052430;28;20037;-62
2022/03/30 09:48:35;;;;;;;27.02;17.50;;;;;;;11.99;48.16;100470.84;5056061;28;20123;-61
2022/03/30 09:51:02;;;;;;;32.30;18.42;;;;;;;12.06;48.70;100466.94;5041457;28;20084;-61
2022/03/30 09:53:30;;;;;;;34.65;17.25;;;;;;;12.10;48.28;100465.28;5058394;28;20075;-62
2022/03/30 09:56:03;;;;;;;28.17;17.90;;;;;;;12.01;48.46;100460.25;5051657;28;20087;-62
2022/03/30 09:58:32;;;;;;;29.88;18.17;;;;;;;11.94;48.46;100464.41;5058369;28;20116;-60
2022/03/30 10:01:03;;;;;;;34.88;18.63;;;;;;;12.07;48.99;100457.50;5041395;28;20373;-62
2022/03/30 10:03:59;;;;;;;32.88;18.27;;;;;;;12.10;48.75;100459.72;5047633;28;20064;-60
2022/03/30 10:06:27;;;;;;;31.42;18.35;;;;;;;12.16;47.91;100467.00;5042301;28;20442;-61
2022/03/30 10:08:54;;;;;;;34.17;18.58;;;;;;;12.17;48.05;100457.53;5041139;28;20433;-60
2022/03/30 10:11:21;;;;;;;34.33;17.85;;;;;;;12.24;47.76;100450.59;5050242;28;20047;-60
2022/03/30 10:13:51;;;;;;;28.52;17.67;;;;;;;12.27;47.85;100452.00;5050719;28;20017;-61
2022/03/30 10:16:18;;;;;;;30.75;18.33;;;;;;;12.21;46.99;100450.31;5050230;28;20025;-61
2022/03/30 10:18:44;;;;;;;28.42;17.75;;;;;;;12.24;47.47;100436.69;5048841;28;20435;-60
2022/03/30 10:21:17;;;;;;;29.48;18.13;;;;;;;12.25;47.55;100448.66;5046224;28;20063;-60
2022/03/30 10:24:09;;;;;;;32.35;18.35;;;;;;;12.34;47.67;100432.25;5042699;28;20036;-60
2022/03/30 10:26:48;;;;;;;31.55;18.35;;;;;;;12.37;47.24;100440.88;5046433;28;20136;-60
2022/03/30 10:29:16;;;;;;;29.67;17.13;;;;;;;12.41;46.63;100424.47;5044181;28;20040;-61
2022/03/30 10:31:41;;;;;;;36.70;18.70;;;;;;;12.43;47.05;100425.88;5043287;28;20041;-62
2022/03/30 10:34:27;;;;;;;28.85;18.08;;;;;;;12.45;47.33;100425.59;5043269;28;20898;-61
2022/03/30 10:37:09;;;;;;;26.45;17.27;;;;;;;12.42;47.45;100421.44;5043757;28;20111;-61
2022/03/30 10:39:52;;;;;;;29.27;17.15;;;;;;;12.45;46.37;100420.03;5038995;28;20037;-62
2022/03/30 10:42:17;;;;;;;28.60;17.67;;;;;;;12.46;46.37;100414.19;5043270;28;20503;-62
2022/03/30 10:44:58;;;;;;;29.02;16.85;;;;;;;12.52;46.07;100415.84;5047060;28;20033;-61
2022/03/30 10:47:26;;;;;;;26.92;17.13;;;;;;;12.55;46.50;100417.25;5047837;28;20025;-61
2022/03/30 10:49:57;;;;;;;27.02;18.73;;;;;;;12.62;46.55;100415.03;5047849;28;20128;-61
2022/03/30 10:52:40;;;;;;;33.78;18.08;;;;;;;12.65;46.97;100408.06;5047543;28;20040;-61
2022/03/30 10:55:14;;;;;;;28.48;17.58;;;;;;;12.67;46.06;100398.31;5041203;28;20071;-61
2022/03/30 10:57:51;;;;;;;24.45;17.02;;;;;;;12.72;46.03;100400.28;5042772;28;20060;-62
2022/03/30 11:00:18;;;;;;;27.27;16.75;;;;;;;12.74;45.30;100403.63;5042244;28;20637;-62
2022/03/30 11:02:44;;;;;;;26.27;17.00;;;;;;;12.76;45.75;100393.88;5045353;28;20610;-61
2022/03/30 11:05:14;;;;;;;27.48;16.75;;;;;;;12.79;45.28;100384.13;5043359;28;20037;-61
2022/03/30 11:07:40;;;;;;;28.58;16.80;;;;;;;12.81;45.17;100390.28;5040074;28;20111;-62
2022/03/30 11:10:14;;;;;;;28.83;17.65;;;;;;;12.85;46.05;100385.81;5044164;28;20112;-62
2022/03/30 11:13:11;;;;;;;28.38;17.13;;;;;;;12.87;45.72;100380.78;5032209;28;20492;-61
2022/03/30 11:16:04;;;;;;;25.38;17.73;;;;;;;12.91;45.93;100375.47;5031148;28;20033;-62
2022/03/30 11:18:31;;;;;;;26.60;17.27;;;;;;;12.89;45.21;100372.13;5061954;28;20082;-62
2022/03/30 11:21:08;;;;;;;27.30;18.08;;;;;;;13.00;46.14;100369.03;5035146;28;20116;-61
2022/03/30 11:23:34;;;;;;;28.35;17.42;;;;;;;13.03;45.60;100362.91;5040135;28;20488;-62